AAL3218 KDFW-KMIA
Flight info
| Callsign | AAL3218 |
|---|---|
| Flight time | 2h 14m |
| Altitude | 35000 |
| Route | MRSSH3 ZALEA DCT HRV Q105 BLVNS Y290 DOWRY FROGZ5 |
| Aircraft | B738/M-SDE2E3FGHIRWXY/LB1 |
Departure
| Time | 2026-04-30 20:41 |
|---|---|
| Airport | Dallas Fort Worth International Airport (KDFW) |
Arrival
| Time | 2026-04-30 22:55 |
|---|---|
| Airport | Miami International Airport (KMIA) |
| Time | Latitude | Longitude | Altitude | Speed | Heading |
|---|---|---|---|---|---|
| 2026-04-30 20:05 | 32.90547 | -97.03506 | 586 ft | 0 kts | 269° |
| 2026-04-30 20:26 | 32.90547 | -97.03498 | 586 ft | 4 kts | 269° |
| 2026-04-30 20:26 | 32.90548 | -97.03471 | 586 ft | 2 kts | 269° |
| 2026-04-30 20:27 | 32.90561 | -97.03419 | 586 ft | 3 kts | 227° |
| 2026-04-30 20:27 | 32.90575 | -97.03401 | 585 ft | 0 kts | 227° |
| 2026-04-30 20:31 | 32.90564 | -97.03406 | 585 ft | 4 kts | 193° |
| 2026-04-30 20:32 | 32.90467 | -97.03311 | 584 ft | 9 kts | 180° |
| 2026-04-30 20:32 | 32.90247 | -97.03312 | 584 ft | 19 kts | 180° |
| 2026-04-30 20:33 | 32.90114 | -97.03314 | 584 ft | 19 kts | 180° |
| 2026-04-30 20:33 | 32.89861 | -97.03315 | 585 ft | 18 kts | 180° |
| 2026-04-30 20:33 | 32.89741 | -97.03315 | 585 ft | 17 kts | 180° |
| 2026-04-30 20:34 | 32.89506 | -97.03316 | 585 ft | 19 kts | 180° |
| 2026-04-30 20:34 | 32.89209 | -97.03318 | 582 ft | 20 kts | 180° |
| 2026-04-30 20:35 | 32.89071 | -97.03318 | 581 ft | 20 kts | 180° |
| 2026-04-30 20:35 | 32.88935 | -97.03320 | 581 ft | 19 kts | 180° |
| 2026-04-30 20:35 | 32.88677 | -97.03322 | 581 ft | 18 kts | 180° |
| 2026-04-30 20:36 | 32.88550 | -97.03320 | 578 ft | 18 kts | 175° |
| 2026-04-30 20:36 | 32.88440 | -97.03287 | 578 ft | 16 kts | 177° |
| 2026-04-30 20:36 | 32.88236 | -97.03289 | 578 ft | 14 kts | 180° |
| 2026-04-30 20:37 | 32.88142 | -97.03289 | 574 ft | 13 kts | 180° |
| 2026-04-30 20:37 | 32.88050 | -97.03290 | 578 ft | 13 kts | 180° |
| 2026-04-30 20:37 | 32.87994 | -97.03284 | 576 ft | 2 kts | 152° |
| 2026-04-30 20:37 | 32.87989 | -97.03278 | 576 ft | 1 kts | 136° |
| 2026-04-30 20:38 | 32.87986 | -97.03272 | 581 ft | 1 kts | 120° |
| 2026-04-30 20:38 | 32.87982 | -97.03258 | 579 ft | 4 kts | 108° |
| 2026-04-30 20:38 | 32.87977 | -97.03198 | 581 ft | 10 kts | 91° |
| 2026-04-30 20:39 | 32.87977 | -97.03037 | 573 ft | 7 kts | 90° |
| 2026-04-30 20:39 | 32.87986 | -97.03007 | 571 ft | 2 kts | 29° |
| 2026-04-30 20:39 | 32.88003 | -97.03007 | 576 ft | 2 kts | 0° |
| 2026-04-30 20:40 | 32.88474 | -97.03006 | 575 ft | 90 kts | 360° |
| 2026-04-30 20:40 | 32.89291 | -97.03002 | 575 ft | 142 kts | 0° |
| 2026-04-30 20:40 | 32.90417 | -97.02996 | 742 ft | 172 kts | 2° |
| 2026-04-30 20:41 | 32.92913 | -97.02950 | 2033 ft | 188 kts | 12° |
| 2026-04-30 20:41 | 32.94229 | -97.02478 | 2319 ft | 208 kts | 22° |
| 2026-04-30 20:41 | 32.95625 | -97.01892 | 2784 ft | 218 kts | 21° |
| 2026-04-30 20:41 | 32.97168 | -97.01328 | 2951 ft | 247 kts | 19° |
| 2026-04-30 20:42 | 32.98759 | -97.00556 | 3519 ft | 253 kts | 37° |
| 2026-04-30 20:42 | 33.00035 | -96.99099 | 4220 ft | 256 kts | 55° |
| 2026-04-30 20:42 | 33.02028 | -96.95432 | 5430 ft | 270 kts | 77° |
| 2026-04-30 20:43 | 33.02081 | -96.93221 | 6130 ft | 268 kts | 100° |
| 2026-04-30 20:43 | 33.01802 | -96.90990 | 6641 ft | 279 kts | 103° |
| 2026-04-30 20:43 | 33.01388 | -96.88693 | 7157 ft | 287 kts | 103° |
| 2026-04-30 20:44 | 32.99908 | -96.84298 | 8313 ft | 294 kts | 130° |
| 2026-04-30 20:44 | 32.98679 | -96.82318 | 8893 ft | 301 kts | 129° |
| 2026-04-30 20:44 | 32.96199 | -96.78173 | 9942 ft | 317 kts | 128° |
| 2026-04-30 20:45 | 32.93549 | -96.73687 | 10490 ft | 350 kts | 128° |
| 2026-04-30 20:45 | 32.92110 | -96.71246 | 10672 ft | 368 kts | 128° |
| 2026-04-30 20:45 | 32.90630 | -96.68730 | 11124 ft | 375 kts | 128° |
| 2026-04-30 20:46 | 32.86073 | -96.60999 | 12928 ft | 386 kts | 130° |
| 2026-04-30 20:46 | 32.84520 | -96.58374 | 13555 ft | 391 kts | 130° |
| 2026-04-30 20:47 | 32.81347 | -96.53020 | 14692 ft | 401 kts | 131° |
| 2026-04-30 20:47 | 32.79731 | -96.50294 | 15208 ft | 406 kts | 131° |
| 2026-04-30 20:48 | 32.76447 | -96.44757 | 16224 ft | 419 kts | 132° |
| 2026-04-30 20:48 | 32.74749 | -96.41896 | 16685 ft | 426 kts | 131° |
| 2026-04-30 20:48 | 32.73034 | -96.39007 | 17166 ft | 431 kts | 131° |
| 2026-04-30 20:48 | 32.71294 | -96.36075 | 17678 ft | 435 kts | 131° |
| 2026-04-30 20:49 | 32.69831 | -96.32875 | 18144 ft | 451 kts | 112° |
| 2026-04-30 20:49 | 32.69240 | -96.29172 | 18598 ft | 460 kts | 96° |
| 2026-04-30 20:49 | 32.69003 | -96.25376 | 19081 ft | 462 kts | 95° |
| 2026-04-30 20:50 | 32.68598 | -96.17721 | 20034 ft | 467 kts | 95° |
| 2026-04-30 20:50 | 32.68374 | -96.13860 | 20519 ft | 469 kts | 95° |
| 2026-04-30 20:50 | 32.68132 | -96.09993 | 21007 ft | 471 kts | 96° |
| 2026-04-30 20:50 | 32.67875 | -96.06113 | 21468 ft | 473 kts | 96° |
| 2026-04-30 20:51 | 32.67610 | -96.02209 | 21893 ft | 475 kts | 96° |
| 2026-04-30 20:51 | 32.67071 | -95.94351 | 22798 ft | 479 kts | 96° |
| 2026-04-30 20:51 | 32.66804 | -95.90452 | 23215 ft | 481 kts | 96° |
| 2026-04-30 20:52 | 32.66531 | -95.86481 | 23609 ft | 483 kts | 96° |
| 2026-04-30 20:52 | 32.66257 | -95.82501 | 23920 ft | 486 kts | 96° |
| 2026-04-30 20:52 | 32.65693 | -95.74434 | 24537 ft | 494 kts | 96° |
| 2026-04-30 20:53 | 32.65406 | -95.70351 | 24869 ft | 498 kts | 96° |
| 2026-04-30 20:53 | 32.65116 | -95.66240 | 25156 ft | 501 kts | 96° |
| 2026-04-30 20:53 | 32.64823 | -95.62107 | 25441 ft | 505 kts | 96° |
| 2026-04-30 20:54 | 32.64229 | -95.53766 | 26019 ft | 510 kts | 95° |
| 2026-04-30 20:54 | 32.63926 | -95.49550 | 26301 ft | 514 kts | 95° |
| 2026-04-30 20:54 | 32.63620 | -95.45305 | 26572 ft | 517 kts | 95° |
| 2026-04-30 20:55 | 32.63003 | -95.36803 | 27102 ft | 523 kts | 95° |
| 2026-04-30 20:55 | 32.62687 | -95.32485 | 27360 ft | 526 kts | 95° |
| 2026-04-30 20:55 | 32.62369 | -95.28158 | 27599 ft | 529 kts | 95° |
| 2026-04-30 20:56 | 32.61721 | -95.19405 | 28066 ft | 535 kts | 95° |
| 2026-04-30 20:56 | 32.61392 | -95.14991 | 28317 ft | 537 kts | 95° |
| 2026-04-30 20:56 | 32.60730 | -95.06177 | 28768 ft | 542 kts | 95° |
| 2026-04-30 20:57 | 32.60392 | -95.01710 | 28992 ft | 545 kts | 95° |
| 2026-04-30 20:57 | 32.60052 | -94.97228 | 29204 ft | 547 kts | 95° |
| 2026-04-30 20:57 | 32.59708 | -94.92725 | 29424 ft | 549 kts | 95° |
| 2026-04-30 20:58 | 32.59011 | -94.83653 | 29852 ft | 554 kts | 95° |
| 2026-04-30 20:58 | 32.58657 | -94.79096 | 30049 ft | 556 kts | 96° |
| 2026-04-30 20:58 | 32.58004 | -94.74575 | 30248 ft | 555 kts | 108° |
| 2026-04-30 20:58 | 32.56866 | -94.70212 | 30549 ft | 552 kts | 111° |
| 2026-04-30 20:59 | 32.54290 | -94.61722 | 31114 ft | 550 kts | 113° |
| 2026-04-30 20:59 | 32.52980 | -94.57450 | 31336 ft | 551 kts | 112° |
| 2026-04-30 21:00 | 32.50472 | -94.48931 | 32131 ft | 545 kts | 111° |
| 2026-04-30 21:00 | 32.48049 | -94.40402 | 32644 ft | 547 kts | 111° |
| 2026-04-30 21:01 | 32.45629 | -94.31838 | 33121 ft | 548 kts | 111° |
| 2026-04-30 21:01 | 32.44414 | -94.27556 | 33378 ft | 548 kts | 111° |
| 2026-04-30 21:01 | 32.41980 | -94.19022 | 33941 ft | 547 kts | 111° |
| 2026-04-30 21:02 | 32.40758 | -94.14756 | 34188 ft | 546 kts | 111° |
| 2026-04-30 21:02 | 32.39538 | -94.10504 | 34429 ft | 546 kts | 111° |
| 2026-04-30 21:02 | 32.38318 | -94.06256 | 34690 ft | 544 kts | 111° |
| 2026-04-30 21:02 | 32.37102 | -94.02028 | 34952 ft | 543 kts | 112° |
| 2026-04-30 21:03 | 32.35896 | -93.97838 | 35035 ft | 546 kts | 112° |
| 2026-04-30 21:03 | 32.33436 | -93.89318 | 35014 ft | 547 kts | 112° |
| 2026-04-30 21:04 | 32.30985 | -93.80842 | 35011 ft | 542 kts | 112° |
| 2026-04-30 21:04 | 32.27328 | -93.68246 | 35006 ft | 537 kts | 112° |
| 2026-04-30 21:05 | 32.24896 | -93.59903 | 35006 ft | 536 kts | 112° |
| 2026-04-30 21:05 | 32.22486 | -93.51651 | 35001 ft | 534 kts | 112° |
| 2026-04-30 21:06 | 32.19206 | -93.43939 | 35024 ft | 518 kts | 134° |
| 2026-04-30 21:06 | 32.14684 | -93.37220 | 35018 ft | 527 kts | 135° |
| 2026-04-30 21:07 | 32.10134 | -93.30457 | 34990 ft | 529 kts | 134° |
| 2026-04-30 21:07 | 32.05613 | -93.23597 | 34993 ft | 529 kts | 134° |
| 2026-04-30 21:08 | 32.01116 | -93.16722 | 34971 ft | 528 kts | 134° |
| 2026-04-30 21:08 | 31.96634 | -93.09873 | 34981 ft | 526 kts | 134° |
| 2026-04-30 21:09 | 31.92920 | -93.04216 | 34995 ft | 525 kts | 134° |
| 2026-04-30 21:09 | 31.88460 | -92.97440 | 34981 ft | 523 kts | 134° |
| 2026-04-30 21:10 | 31.83274 | -92.89579 | 34989 ft | 522 kts | 134° |
| 2026-04-30 21:10 | 31.78823 | -92.82845 | 34982 ft | 521 kts | 134° |
| 2026-04-30 21:11 | 31.75090 | -92.77206 | 34962 ft | 521 kts | 134° |
| 2026-04-30 21:11 | 31.70662 | -92.70528 | 34963 ft | 521 kts | 134° |
| 2026-04-30 21:12 | 31.66196 | -92.63803 | 34959 ft | 522 kts | 134° |
| 2026-04-30 21:12 | 31.61722 | -92.57080 | 34970 ft | 523 kts | 134° |
| 2026-04-30 21:13 | 31.57226 | -92.50335 | 34963 ft | 525 kts | 134° |
| 2026-04-30 21:13 | 31.52722 | -92.43588 | 34952 ft | 526 kts | 134° |
| 2026-04-30 21:14 | 31.48200 | -92.36827 | 34940 ft | 527 kts | 133° |
| 2026-04-30 21:14 | 31.43676 | -92.30073 | 34946 ft | 527 kts | 133° |
| 2026-04-30 21:15 | 31.39143 | -92.23316 | 34947 ft | 527 kts | 134° |
| 2026-04-30 21:15 | 31.34636 | -92.16613 | 34953 ft | 526 kts | 134° |
| 2026-04-30 21:16 | 31.30107 | -92.09888 | 34947 ft | 526 kts | 134° |
| 2026-04-30 21:16 | 31.25575 | -92.03170 | 34946 ft | 525 kts | 134° |
| 2026-04-30 21:17 | 31.21077 | -91.96512 | 34940 ft | 524 kts | 133° |
| 2026-04-30 21:17 | 31.16553 | -91.89833 | 34951 ft | 522 kts | 133° |
| 2026-04-30 21:18 | 31.12051 | -91.83193 | 34927 ft | 520 kts | 133° |
| 2026-04-30 21:18 | 31.07572 | -91.76597 | 34932 ft | 517 kts | 134° |
| 2026-04-30 21:19 | 31.03186 | -91.69943 | 34903 ft | 521 kts | 124° |
| 2026-04-30 21:19 | 31.01712 | -91.66129 | 34942 ft | 526 kts | 108° |
| 2026-04-30 21:19 | 31.00855 | -91.61987 | 34940 ft | 526 kts | 102° |
| 2026-04-30 21:20 | 30.99839 | -91.53542 | 34932 ft | 527 kts | 92° |
| 2026-04-30 21:20 | 30.99687 | -91.44994 | 34928 ft | 528 kts | 90° |
| 2026-04-30 21:21 | 30.99670 | -91.36424 | 34941 ft | 529 kts | 89° |
| 2026-04-30 21:22 | 30.99685 | -91.23536 | 34940 ft | 531 kts | 89° |
| 2026-04-30 21:23 | 30.99742 | -91.06292 | 34934 ft | 534 kts | 89° |
| 2026-04-30 21:23 | 30.99812 | -90.93286 | 34933 ft | 535 kts | 89° |
| 2026-04-30 21:24 | 30.99868 | -90.84608 | 34937 ft | 535 kts | 89° |
| 2026-04-30 21:24 | 30.99928 | -90.75996 | 34941 ft | 534 kts | 89° |
| 2026-04-30 21:25 | 31.00050 | -90.63029 | 34935 ft | 532 kts | 89° |
| 2026-04-30 21:26 | 31.00202 | -90.50116 | 34945 ft | 529 kts | 89° |
| 2026-04-30 21:27 | 31.00372 | -90.37303 | 34953 ft | 528 kts | 88° |
| 2026-04-30 21:27 | 31.00118 | -90.28705 | 34957 ft | 527 kts | 97° |
| 2026-04-30 21:28 | 30.98725 | -90.16028 | 34952 ft | 529 kts | 98° |
| 2026-04-30 21:29 | 30.97235 | -90.03264 | 34948 ft | 531 kts | 98° |
| 2026-04-30 21:30 | 30.94755 | -89.81921 | 34923 ft | 524 kts | 98° |
| 2026-04-30 21:31 | 30.92427 | -89.61068 | 34953 ft | 522 kts | 98° |
| 2026-04-30 21:32 | 30.90310 | -89.48710 | 34939 ft | 515 kts | 124° |
| 2026-04-30 21:32 | 30.88173 | -89.45448 | 34949 ft | 500 kts | 144° |
| 2026-04-30 21:32 | 30.85421 | -89.43080 | 34968 ft | 488 kts | 157° |
| 2026-04-30 21:33 | 30.82392 | -89.41431 | 34947 ft | 476 kts | 169° |
| 2026-04-30 21:33 | 30.76073 | -89.39118 | 34948 ft | 476 kts | 171° |
| 2026-04-30 21:34 | 30.69765 | -89.36860 | 34935 ft | 478 kts | 170° |
| 2026-04-30 21:34 | 30.60231 | -89.33340 | 34938 ft | 480 kts | 169° |
| 2026-04-30 21:35 | 30.53872 | -89.30961 | 34934 ft | 480 kts | 169° |
| 2026-04-30 21:35 | 30.47501 | -89.28579 | 34933 ft | 480 kts | 169° |
| 2026-04-30 21:36 | 30.41145 | -89.26208 | 34922 ft | 479 kts | 169° |
| 2026-04-30 21:37 | 30.28543 | -89.21516 | 34914 ft | 475 kts | 168° |
| 2026-04-30 21:37 | 30.22250 | -89.19183 | 34929 ft | 473 kts | 168° |
| 2026-04-30 21:38 | 30.15983 | -89.16862 | 34929 ft | 471 kts | 168° |
| 2026-04-30 21:38 | 30.09747 | -89.14555 | 34910 ft | 470 kts | 169° |
| 2026-04-30 21:39 | 30.03556 | -89.12267 | 34913 ft | 470 kts | 169° |
| 2026-04-30 21:39 | 29.97318 | -89.09966 | 34923 ft | 471 kts | 169° |
| 2026-04-30 21:40 | 29.91059 | -89.07660 | 34925 ft | 473 kts | 169° |
| 2026-04-30 21:40 | 29.84783 | -89.05350 | 34927 ft | 475 kts | 169° |
| 2026-04-30 21:41 | 29.78473 | -89.03030 | 34910 ft | 476 kts | 170° |
| 2026-04-30 21:41 | 29.72144 | -89.00706 | 34931 ft | 477 kts | 170° |
| 2026-04-30 21:42 | 29.65838 | -88.98393 | 34919 ft | 479 kts | 170° |
| 2026-04-30 21:42 | 29.59477 | -88.96063 | 34934 ft | 479 kts | 170° |
| 2026-04-30 21:43 | 29.53118 | -88.93737 | 34885 ft | 479 kts | 170° |
| 2026-04-30 21:43 | 29.46771 | -88.91417 | 34917 ft | 478 kts | 170° |
| 2026-04-30 21:44 | 29.40435 | -88.89105 | 34924 ft | 477 kts | 170° |
| 2026-04-30 21:44 | 29.34112 | -88.86802 | 34925 ft | 476 kts | 170° |
| 2026-04-30 21:45 | 29.27797 | -88.84505 | 34933 ft | 475 kts | 170° |
| 2026-04-30 21:45 | 29.21539 | -88.82231 | 34917 ft | 474 kts | 170° |
| 2026-04-30 21:46 | 29.15241 | -88.79945 | 34922 ft | 473 kts | 170° |
| 2026-04-30 21:46 | 29.08974 | -88.77674 | 34928 ft | 472 kts | 170° |
| 2026-04-30 21:47 | 29.02701 | -88.75403 | 34928 ft | 472 kts | 170° |
| 2026-04-30 21:47 | 28.96430 | -88.73135 | 34932 ft | 472 kts | 170° |
| 2026-04-30 21:48 | 28.90290 | -88.70581 | 34920 ft | 481 kts | 158° |
| 2026-04-30 21:48 | 28.84884 | -88.65893 | 34924 ft | 499 kts | 137° |
| 2026-04-30 21:49 | 28.80373 | -88.59811 | 34929 ft | 502 kts | 134° |
| 2026-04-30 21:49 | 28.75913 | -88.53651 | 34928 ft | 503 kts | 135° |
| 2026-04-30 21:50 | 28.71427 | -88.47580 | 34928 ft | 503 kts | 135° |
| 2026-04-30 21:50 | 28.66878 | -88.41504 | 34932 ft | 504 kts | 135° |
| 2026-04-30 21:51 | 28.62313 | -88.35425 | 34920 ft | 504 kts | 135° |
| 2026-04-30 21:51 | 28.57743 | -88.29340 | 34936 ft | 505 kts | 135° |
| 2026-04-30 21:52 | 28.53163 | -88.23248 | 34934 ft | 507 kts | 135° |
| 2026-04-30 21:52 | 28.48602 | -88.17188 | 34930 ft | 508 kts | 135° |
| 2026-04-30 21:53 | 28.44010 | -88.11095 | 34929 ft | 508 kts | 135° |
| 2026-04-30 21:53 | 28.39514 | -88.04879 | 34919 ft | 513 kts | 127° |
| 2026-04-30 21:54 | 28.36348 | -87.97596 | 34934 ft | 518 kts | 110° |
| 2026-04-30 21:54 | 28.34164 | -87.89787 | 34923 ft | 518 kts | 108° |
| 2026-04-30 21:55 | 28.32000 | -87.81969 | 34933 ft | 519 kts | 109° |
| 2026-04-30 21:55 | 28.29789 | -87.74218 | 34936 ft | 519 kts | 109° |
| 2026-04-30 21:56 | 28.27534 | -87.66443 | 34950 ft | 518 kts | 109° |
| 2026-04-30 21:56 | 28.25274 | -87.58664 | 34929 ft | 517 kts | 110° |
| 2026-04-30 21:57 | 28.23028 | -87.50978 | 34929 ft | 515 kts | 110° |
| 2026-04-30 21:57 | 28.20778 | -87.43284 | 34927 ft | 513 kts | 110° |
| 2026-04-30 21:58 | 28.18534 | -87.35617 | 34929 ft | 511 kts | 110° |
| 2026-04-30 21:58 | 28.16658 | -87.29220 | 34935 ft | 509 kts | 110° |
| 2026-04-30 21:59 | 28.14435 | -87.21656 | 34933 ft | 508 kts | 110° |
| 2026-04-30 22:00 | 28.11082 | -87.10282 | 34934 ft | 506 kts | 110° |
| 2026-04-30 22:00 | 28.07726 | -86.98934 | 34942 ft | 506 kts | 110° |
| 2026-04-30 22:01 | 28.05479 | -86.91358 | 34945 ft | 507 kts | 110° |
| 2026-04-30 22:01 | 28.03242 | -86.83830 | 34938 ft | 508 kts | 110° |
| 2026-04-30 22:02 | 28.00984 | -86.76248 | 34937 ft | 509 kts | 109° |
| 2026-04-30 22:02 | 27.98763 | -86.68645 | 34941 ft | 509 kts | 109° |
| 2026-04-30 22:03 | 27.96567 | -86.61016 | 34940 ft | 510 kts | 109° |
| 2026-04-30 22:03 | 27.94364 | -86.53383 | 34935 ft | 510 kts | 108° |
| 2026-04-30 22:04 | 27.92151 | -86.45762 | 34940 ft | 510 kts | 109° |
| 2026-04-30 22:05 | 27.88834 | -86.34385 | 34939 ft | 510 kts | 109° |
| 2026-04-30 22:05 | 27.86606 | -86.26766 | 34939 ft | 509 kts | 109° |
| 2026-04-30 22:06 | 27.84376 | -86.19157 | 34938 ft | 509 kts | 109° |
| 2026-04-30 22:06 | 27.81029 | -86.07766 | 34943 ft | 508 kts | 108° |
| 2026-04-30 22:07 | 27.78809 | -86.00234 | 34943 ft | 508 kts | 108° |
| 2026-04-30 22:07 | 27.76573 | -85.92661 | 34943 ft | 508 kts | 108° |
| 2026-04-30 22:08 | 27.74331 | -85.85088 | 34945 ft | 508 kts | 109° |
| 2026-04-30 22:08 | 27.72087 | -85.77522 | 34947 ft | 508 kts | 109° |
| 2026-04-30 22:09 | 27.69852 | -85.70007 | 34946 ft | 508 kts | 109° |
| 2026-04-30 22:09 | 27.67598 | -85.62442 | 34945 ft | 508 kts | 109° |
| 2026-04-30 22:10 | 27.65341 | -85.54884 | 34945 ft | 508 kts | 109° |
| 2026-04-30 22:10 | 27.63082 | -85.47336 | 34945 ft | 508 kts | 109° |
| 2026-04-30 22:11 | 27.59699 | -85.36061 | 34947 ft | 508 kts | 109° |
| 2026-04-30 22:12 | 27.58007 | -85.28341 | 34960 ft | 507 kts | 99° |
| 2026-04-30 22:12 | 27.56797 | -85.20510 | 34945 ft | 507 kts | 99° |
| 2026-04-30 22:13 | 27.55447 | -85.12695 | 34949 ft | 507 kts | 101° |
| 2026-04-30 22:13 | 27.54064 | -85.04908 | 34948 ft | 507 kts | 101° |
| 2026-04-30 22:14 | 27.52685 | -84.97123 | 34950 ft | 506 kts | 100° |
| 2026-04-30 22:14 | 27.51308 | -84.89341 | 34948 ft | 506 kts | 100° |
| 2026-04-30 22:15 | 27.49938 | -84.81622 | 34946 ft | 505 kts | 100° |
| 2026-04-30 22:15 | 27.48556 | -84.73863 | 34947 ft | 504 kts | 100° |
| 2026-04-30 22:16 | 27.47177 | -84.66117 | 34944 ft | 503 kts | 100° |
| 2026-04-30 22:17 | 27.44415 | -84.50677 | 34949 ft | 502 kts | 100° |
| 2026-04-30 22:17 | 27.42344 | -84.39164 | 34949 ft | 502 kts | 100° |
| 2026-04-30 22:18 | 27.40250 | -84.27600 | 34951 ft | 503 kts | 100° |
| 2026-04-30 22:19 | 27.38142 | -84.16013 | 34951 ft | 504 kts | 100° |
| 2026-04-30 22:20 | 27.36032 | -84.04464 | 34954 ft | 504 kts | 100° |
| 2026-04-30 22:20 | 27.33902 | -83.92863 | 34948 ft | 505 kts | 100° |
| 2026-04-30 22:21 | 27.32475 | -83.85124 | 34962 ft | 504 kts | 99° |
| 2026-04-30 22:21 | 27.31045 | -83.77396 | 34955 ft | 504 kts | 99° |
| 2026-04-30 22:22 | 27.29615 | -83.69685 | 34946 ft | 503 kts | 99° |
| 2026-04-30 22:22 | 27.28192 | -83.62043 | 34952 ft | 502 kts | 99° |
| 2026-04-30 22:23 | 27.26760 | -83.54374 | 34958 ft | 501 kts | 99° |
| 2026-04-30 22:23 | 27.25327 | -83.46724 | 34952 ft | 500 kts | 99° |
| 2026-04-30 22:24 | 27.23890 | -83.39074 | 34951 ft | 499 kts | 99° |
| 2026-04-30 22:24 | 27.22452 | -83.31448 | 34954 ft | 498 kts | 99° |
| 2026-04-30 22:25 | 27.21021 | -83.23879 | 34951 ft | 497 kts | 99° |
| 2026-04-30 22:25 | 27.19578 | -83.16266 | 34955 ft | 497 kts | 99° |
| 2026-04-30 22:26 | 27.17411 | -83.04887 | 34952 ft | 497 kts | 99° |
| 2026-04-30 22:27 | 27.15961 | -82.97306 | 34957 ft | 496 kts | 99° |
| 2026-04-30 22:27 | 27.13772 | -82.85921 | 34959 ft | 496 kts | 101° |
| 2026-04-30 22:28 | 27.10827 | -82.78990 | 34981 ft | 498 kts | 122° |
| 2026-04-30 22:28 | 27.08947 | -82.75714 | 34962 ft | 499 kts | 122° |
| 2026-04-30 22:29 | 27.01564 | -82.62516 | 34964 ft | 499 kts | 121° |
| 2026-04-30 22:31 | 26.87787 | -82.40273 | 34262 ft | 502 kts | 141° |
| 2026-04-30 22:32 | 26.79687 | -82.32848 | 32246 ft | 500 kts | 142° |
| 2026-04-30 22:32 | 26.74446 | -82.27909 | 31305 ft | 490 kts | 141° |
| 2026-04-30 22:33 | 26.66782 | -82.20564 | 29891 ft | 478 kts | 142° |
| 2026-04-30 22:33 | 26.61775 | -82.15775 | 28837 ft | 469 kts | 141° |
| 2026-04-30 22:34 | 26.54433 | -82.08773 | 27390 ft | 456 kts | 141° |
| 2026-04-30 22:35 | 26.49717 | -82.04174 | 26465 ft | 449 kts | 139° |
| 2026-04-30 22:36 | 26.40568 | -81.94891 | 24598 ft | 440 kts | 139° |
| 2026-04-30 22:36 | 26.38298 | -81.92603 | 24132 ft | 439 kts | 139° |
| 2026-04-30 22:37 | 26.31520 | -81.85795 | 22658 ft | 433 kts | 138° |
| 2026-04-30 22:37 | 26.29291 | -81.83558 | 22196 ft | 430 kts | 138° |
| 2026-04-30 22:37 | 26.24872 | -81.79121 | 21290 ft | 424 kts | 137° |
| 2026-04-30 22:38 | 26.21750 | -81.73679 | 20404 ft | 417 kts | 113° |
| 2026-04-30 22:38 | 26.19300 | -81.67850 | 19522 ft | 413 kts | 114° |
| 2026-04-30 22:39 | 26.18083 | -81.65015 | 19079 ft | 411 kts | 114° |
| 2026-04-30 22:39 | 26.14359 | -81.56450 | 17695 ft | 407 kts | 115° |
| 2026-04-30 22:40 | 26.10707 | -81.48080 | 16458 ft | 395 kts | 115° |
| 2026-04-30 22:41 | 26.07142 | -81.39923 | 15220 ft | 386 kts | 116° |
| 2026-04-30 22:41 | 26.04809 | -81.34572 | 14393 ft | 382 kts | 116° |
| 2026-04-30 22:42 | 26.00244 | -81.24101 | 12678 ft | 372 kts | 116° |
| 2026-04-30 22:43 | 25.98004 | -81.18972 | 11864 ft | 366 kts | 116° |
| 2026-04-30 22:43 | 25.95796 | -81.13922 | 11139 ft | 358 kts | 116° |
| 2026-04-30 22:44 | 25.94024 | -81.09877 | 10783 ft | 345 kts | 116° |
| 2026-04-30 22:45 | 25.90067 | -81.00559 | 9970 ft | 316 kts | 112° |
| 2026-04-30 22:45 | 25.88411 | -80.96146 | 9405 ft | 311 kts | 112° |
| 2026-04-30 22:46 | 25.86736 | -80.91755 | 8822 ft | 306 kts | 112° |
| 2026-04-30 22:47 | 25.83455 | -80.83218 | 7696 ft | 293 kts | 112° |
| 2026-04-30 22:47 | 25.81866 | -80.79091 | 7111 ft | 291 kts | 113° |
| 2026-04-30 22:48 | 25.80283 | -80.74983 | 6515 ft | 285 kts | 112° |
| 2026-04-30 22:49 | 25.78024 | -80.69129 | 5637 ft | 265 kts | 112° |
| 2026-04-30 22:49 | 25.77220 | -80.63259 | 4868 ft | 266 kts | 86° |
| 2026-04-30 22:50 | 25.77600 | -80.55333 | 3836 ft | 239 kts | 87° |
| 2026-04-30 22:51 | 25.77790 | -80.51743 | 3475 ft | 235 kts | 87° |
| 2026-04-30 22:51 | 25.77938 | -80.48208 | 2900 ft | 222 kts | 89° |
| 2026-04-30 22:52 | 25.78004 | -80.46524 | 2627 ft | 214 kts | 90° |
| 2026-04-30 22:52 | 25.78132 | -80.43325 | 2082 ft | 199 kts | 91° |
| 2026-04-30 22:53 | 25.78249 | -80.40411 | 1612 ft | 181 kts | 92° |
| 2026-04-30 22:53 | 25.78355 | -80.37767 | 1172 ft | 162 kts | 91° |
| 2026-04-30 22:53 | 25.78404 | -80.36556 | 948 ft | 157 kts | 92° |
| 2026-04-30 22:54 | 25.78499 | -80.34178 | 598 ft | 149 kts | 92° |
| 2026-04-30 22:55 | 25.78645 | -80.30706 | 23 ft | 152 kts | 91° |
| 2026-04-30 22:55 | 25.78713 | -80.29093 | 14 ft | 48 kts | 87° |
| 2026-04-30 22:56 | 25.78804 | -80.28694 | 15 ft | 9 kts | 44° |
| 2026-04-30 22:56 | 25.78990 | -80.28688 | 14 ft | 9 kts | 358° |
| 2026-04-30 22:57 | 25.79135 | -80.28695 | 13 ft | 13 kts | 357° |
| 2026-04-30 22:57 | 25.79311 | -80.28704 | 14 ft | 12 kts | 357° |
| 2026-04-30 22:58 | 25.79427 | -80.28800 | 14 ft | 10 kts | 328° |
| 2026-04-30 22:59 | 25.79632 | -80.28812 | 14 ft | 10 kts | 357° |
| 2026-04-30 22:59 | 25.79912 | -80.28823 | 14 ft | 9 kts | 17° |